Rensselaer, IN

7:27 AM CDT on March 28, 2017 (GMT -0500)
Jasper County

Weather History for KRZL - April, 2014

Change the Weather History Date:

Thursday, April 10, 2014

  Actual Average (KIKK) Record (KIKK)
Temperature  
Mean Temperature 57 °F -  
Max Temperature 68 °F 54 °F 84 °F (2011)
Min Temperature 46 °F 33 °F 21 °F (1989)
Degree Days  
Heating Degree Days 8    
Growing Degree Days 7 (Base 50)    
Moisture  
Dew Point 40 °F    
Average Humidity 59    
Maximum Humidity 88    
Minimum Humidity 37    
Precipitation  
Precipitation 0.00 in - - ()
Sea Level Pressure  
Sea Level Pressure 29.84 in    
Wind  
Wind Speed 13 mph (SW)    
Max Wind Speed 26 mph    
Max Gust Speed 36 mph    
Visibility 10 miles    
Events Rain    
Averages and records for this station are not official NWS values.
T = Trace of Precipitation, MM = Missing Value Source: NWS Daily Summary

Daily Weather History Graph

Daily Weather History Graph

Search for Another Location

Airport or City:

Trip Planner

Search our weather history database for the weather conditions in past years. The results will help you decide how hot, cold, wet, or windy it might be!

Date:

Astronomy

Apr. 10, 2014 Rise Set
Actual Time 6:17 AM CDT 7:23 PM CDT
Civil Twilight 5:49 AM CDT 7:51 PM CDT
Nautical Twilight 5:15 AM CDT 8:25 PM CDT
Astronomical Twilight 4:40 AM CDT 9:00 PM CDT
Moon 3:04 PM CDT (4/10) 3:42 AM CDT (4/10)
Length of Visible Light 14h 02m
Length of Day
13h 05m
Waxing Gibbous, 80% of the Moon is Illuminated
Apr 10
Waxing Gibbous
Apr 15
Full
Apr 22
Last Quarter
Apr 29
New
May 6
First Quarter

Hourly Weather History & Observations

Time (CDT) Temp. Windchill Dew Point Humidity Pressure Visibility Wind Dir Wind Speed Gust Speed Precip Events Conditions
12:15 AM 46.4 °F 41.9 °F 33.8 °F 62% 29.94 in 10.0 mi SSW 9.2 mph - N/A   Clear
12:35 AM 46.4 °F 41.5 °F 33.8 °F 62% 29.93 in 10.0 mi South 10.4 mph - N/A   Clear
12:55 AM 48.2 °F - 33.8 °F 58% 29.93 in 10.0 mi South 11.5 mph - N/A   Clear
1:15 AM 46.4 °F 40.4 °F 32.0 °F 57% 29.92 in 10.0 mi South 13.8 mph - N/A   Clear
1:35 AM 48.2 °F - 32.0 °F 54% 29.91 in 10.0 mi South 13.8 mph - N/A   Clear
1:55 AM 48.2 °F - 32.0 °F 54% 29.90 in 10.0 mi South 15.0 mph - N/A   Clear
2:15 AM 48.2 °F - 32.0 °F 54% 29.89 in 10.0 mi South 15.0 mph 19.6 mph N/A   Clear
2:35 AM 48.2 °F - 32.0 °F 54% 29.88 in 10.0 mi South 16.1 mph 20.7 mph N/A   Clear
2:55 AM 48.2 °F - 33.8 °F 58% 29.88 in 10.0 mi South 13.8 mph - N/A   Clear
3:15 AM 48.2 °F - 33.8 °F 58% 29.87 in 10.0 mi SSW 15.0 mph - N/A   Clear
3:35 AM 46.4 °F 40.7 °F 33.8 °F 62% 29.87 in 10.0 mi SSW 12.7 mph - N/A   Clear
3:55 AM 46.4 °F 40.7 °F 33.8 °F 62% 29.86 in 10.0 mi South 12.7 mph - N/A   Clear
4:15 AM 46.4 °F 40.4 °F 33.8 °F 62% 29.86 in 10.0 mi South 13.8 mph - N/A   Clear
4:35 AM 46.4 °F 40.7 °F 35.6 °F 66% 29.85 in 10.0 mi South 12.7 mph - N/A   Clear
4:55 AM 46.4 °F 39.8 °F 35.6 °F 66% 29.84 in 10.0 mi South 16.1 mph 20.7 mph N/A   Clear
5:15 AM 46.4 °F 40.1 °F 35.6 °F 66% 29.83 in 10.0 mi South 15.0 mph - N/A   Clear
5:35 AM 46.4 °F 40.4 °F 35.6 °F 66% 29.83 in 10.0 mi South 13.8 mph 20.7 mph N/A   Clear
5:55 AM 48.2 °F - 35.6 °F 62% 29.82 in 10.0 mi South 15.0 mph 21.9 mph N/A   Clear
6:15 AM 48.2 °F - 35.6 °F 62% 29.81 in 10.0 mi South 15.0 mph - N/A   Clear
6:35 AM 48.2 °F - 35.6 °F 62% 29.81 in 10.0 mi South 16.1 mph 23.0 mph N/A   Clear
7:15 AM 51.8 °F - 35.6 °F 54% 29.80 in 10.0 mi SSW 20.7 mph 28.8 mph N/A   Clear
7:35 AM 51.8 °F - 35.6 °F 54% 29.79 in 10.0 mi South 20.7 mph 28.8 mph N/A   Clear
7:55 AM 53.6 °F - 35.6 °F 51% 29.79 in 10.0 mi South 21.9 mph 33.4 mph N/A   Clear
8:15 AM 53.6 °F - 35.6 °F 51% 29.78 in 10.0 mi South 21.9 mph 33.4 mph N/A   Clear
8:35 AM 55.4 °F - 37.4 °F 51% 29.80 in 10.0 mi SSW 20.7 mph 29.9 mph N/A   Scattered Clouds
8:55 AM 55.4 °F - 37.4 °F 51% 29.80 in 10.0 mi SSW 20.7 mph 26.5 mph N/A   Scattered Clouds
9:15 AM 57.2 °F - 37.4 °F 48% 29.80 in 10.0 mi SSW 18.4 mph 26.5 mph N/A   Clear
9:35 AM 59.0 °F - 37.4 °F 45% 29.79 in 10.0 mi SSW 20.7 mph 27.6 mph N/A   Clear
9:55 AM 60.8 °F - 37.4 °F 42% 29.78 in 10.0 mi SSW 23.0 mph 32.2 mph N/A   Clear
10:15 AM 60.8 °F - 37.4 °F 42% 29.78 in 10.0 mi SSW 21.9 mph 34.5 mph N/A   Clear
10:35 AM 60.8 °F - 39.2 °F 45% 29.78 in 10.0 mi SSW 25.3 mph 34.5 mph N/A   Clear
10:55 AM 62.6 °F - 39.2 °F 42% 29.78 in 10.0 mi SSW 23.0 mph 35.7 mph N/A   Clear
11:15 AM 62.6 °F - 39.2 °F 42% 29.78 in 10.0 mi SSW 23.0 mph 33.4 mph N/A   Clear
11:35 AM 62.6 °F - 41.0 °F 45% 29.78 in 10.0 mi SSW 20.7 mph 28.8 mph N/A   Clear
11:55 AM 62.6 °F - 39.2 °F 42% 29.78 in 10.0 mi SW 26.5 mph 35.7 mph N/A   Clear
12:15 PM 62.6 °F - 39.2 °F 42% 29.76 in 10.0 mi SSW 24.2 mph 33.4 mph N/A   Clear
12:35 PM 62.6 °F - 39.2 °F 42% 29.77 in 10.0 mi SW 19.6 mph 31.1 mph N/A   Clear
12:55 PM 64.4 °F - 41.0 °F 42% 29.77 in 10.0 mi SW 23.0 mph 28.8 mph N/A   Clear
1:15 PM 64.4 °F - 41.0 °F 42% 29.77 in 10.0 mi SW 16.1 mph 25.3 mph N/A   Clear
1:35 PM 64.4 °F - 41.0 °F 42% 29.77 in 10.0 mi SW 16.1 mph 23.0 mph N/A   Clear
1:55 PM 64.4 °F - 41.0 °F 42% 29.78 in 10.0 mi WSW 20.7 mph 25.3 mph N/A   Clear
2:15 PM 66.2 °F - 41.0 °F 40% 29.78 in 10.0 mi SW 23.0 mph 28.8 mph N/A   Clear
2:35 PM 68.0 °F - 41.0 °F 37% 29.78 in 10.0 mi WSW 21.9 mph 27.6 mph N/A   Clear
2:55 PM 66.2 °F - 39.2 °F 37% 29.79 in 10.0 mi West 19.6 mph 27.6 mph N/A   Clear
3:15 PM 64.4 °F - 39.2 °F 40% 29.80 in 10.0 mi West 18.4 mph 23.0 mph N/A   Scattered Clouds
3:35 PM 64.4 °F - 41.0 °F 42% 29.78 in 10.0 mi West 11.5 mph 17.3 mph N/A   Scattered Clouds
3:55 PM 64.4 °F - 39.2 °F 40% 29.78 in 10.0 mi West 10.4 mph 17.3 mph N/A   Scattered Clouds
4:15 PM 64.4 °F - 41.0 °F 42% 29.81 in 10.0 mi West 11.5 mph 16.1 mph N/A   Clear
4:35 PM 64.4 °F - 41.0 °F 42% 29.82 in 10.0 mi West 16.1 mph 21.9 mph N/A   Scattered Clouds
4:55 PM 60.8 °F - 42.8 °F 52% 29.83 in 10.0 mi West 8.1 mph 20.7 mph N/A Rain Light Rain
5:15 PM 59.0 °F - 42.8 °F 55% 29.82 in 10.0 mi West 10.4 mph - N/A Rain Light Rain
5:35 PM 59.0 °F - 44.6 °F 59% 29.82 in 10.0 mi West 5.8 mph - N/A   Drizzle
5:55 PM 57.2 °F - 46.4 °F 67% 29.84 in 10.0 mi West 5.8 mph - N/A Rain Light Rain
6:15 PM 57.2 °F - 44.6 °F 63% 29.85 in 10.0 mi West 5.8 mph - N/A   Drizzle
6:35 PM 55.4 °F - 46.4 °F 72% 29.85 in 10.0 mi SW 3.5 mph - N/A   Light Drizzle
6:55 PM 55.4 °F - 48.2 °F 77% 29.86 in 10.0 mi SW 3.5 mph - N/A   Overcast
7:15 PM 55.4 °F - 46.4 °F 72% 29.86 in 10.0 mi Calm Calm - N/A Rain Light Rain
7:35 PM 53.6 °F - 48.2 °F 82% 29.88 in 10.0 mi SSW 3.5 mph - N/A Rain Rain
7:55 PM 53.6 °F - 50.0 °F 88% 29.89 in 10.0 mi SSW 4.6 mph - N/A   Light Drizzle
8:15 PM 53.6 °F - 48.2 °F 82% 29.89 in 10.0 mi Calm Calm - N/A   Light Drizzle
8:35 PM 53.6 °F - 48.2 °F 82% 29.90 in 10.0 mi Calm Calm - N/A   Mostly Cloudy
8:55 PM 51.8 °F - 48.2 °F 88% 29.91 in 10.0 mi Calm Calm - N/A   Scattered Clouds
9:15 PM 53.6 °F - 48.2 °F 82% 29.92 in 10.0 mi SW 4.6 mph - N/A   Mostly Cloudy
9:35 PM 53.6 °F - 48.2 °F 82% 29.91 in 10.0 mi Calm Calm - N/A   Scattered Clouds
9:55 PM 51.8 °F - 46.4 °F 82% 29.91 in 10.0 mi Calm Calm - N/A   Clear
10:15 PM 51.8 °F - 46.4 °F 82% 29.91 in 10.0 mi Calm Calm - N/A   Clear
10:35 PM 50.0 °F - 46.4 °F 87% 29.92 in 10.0 mi Calm Calm - N/A   Clear
10:55 PM 50.0 °F - 46.4 °F 87% 29.92 in 10.0 mi Calm Calm - N/A   Clear
11:15 PM 48.2 °F - 44.6 °F 87% 29.93 in 10.0 mi SW 4.6 mph - N/A   Clear
11:35 PM 46.4 °F - 42.8 °F 87% 29.94 in 10.0 mi Calm Calm - N/A   Clear
11:55 PM 46.4 °F - 42.8 °F 87% 29.95 in 10.0 mi Calm Calm - N/A   Clear